sensor_id;sensor_type;location;lat;lon;timestamp;temperature;humidity
78788;DHT22;68131;52.508;5.502;2023-04-12T00:02:00;10.80;69.10
78788;DHT22;68131;52.508;5.502;2023-04-12T00:04:29;10.80;69.40
78788;DHT22;68131;52.508;5.502;2023-04-12T00:06:59;10.70;69.60
78788;DHT22;68131;52.508;5.502;2023-04-12T00:09:28;10.70;69.80
78788;DHT22;68131;52.508;5.502;2023-04-12T00:11:58;10.70;70.20
78788;DHT22;68131;52.508;5.502;2023-04-12T00:14:30;10.60;70.30
78788;DHT22;68131;52.508;5.502;2023-04-12T00:16:59;10.60;70.50
78788;DHT22;68131;52.508;5.502;2023-04-12T00:19:28;10.50;70.80
78788;DHT22;68131;52.508;5.502;2023-04-12T00:21:57;10.40;71.10
78788;DHT22;68131;52.508;5.502;2023-04-12T00:24:26;10.30;71.60
78788;DHT22;68131;52.508;5.502;2023-04-12T00:26:55;10.30;71.80
78788;DHT22;68131;52.508;5.502;2023-04-12T00:29:27;10.20;72.00
78788;DHT22;68131;52.508;5.502;2023-04-12T00:31:59;10.20;72.20
78788;DHT22;68131;52.508;5.502;2023-04-12T00:34:30;10.10;72.40
78788;DHT22;68131;52.508;5.502;2023-04-12T00:36:59;10.10;72.70
78788;DHT22;68131;52.508;5.502;2023-04-12T00:39:29;10.10;72.70
78788;DHT22;68131;52.508;5.502;2023-04-12T00:42:01;10.00;73.10
78788;DHT22;68131;52.508;5.502;2023-04-12T00:44:33;10.00;73.20
78788;DHT22;68131;52.508;5.502;2023-04-12T00:47:06;10.00;73.30
78788;DHT22;68131;52.508;5.502;2023-04-12T00:49:35;10.00;73.40
78788;DHT22;68131;52.508;5.502;2023-04-12T00:52:07;10.00;73.40
78788;DHT22;68131;52.508;5.502;2023-04-12T00:54:37;9.90;73.60
78788;DHT22;68131;52.508;5.502;2023-04-12T00:57:06;9.90;73.80
78788;DHT22;68131;52.508;5.502;2023-04-12T00:59:35;9.80;74.00
78788;DHT22;68131;52.508;5.502;2023-04-12T01:02:07;9.80;74.20
78788;DHT22;68131;52.508;5.502;2023-04-12T01:04:37;9.70;74.30
78788;DHT22;68131;52.508;5.502;2023-04-12T01:07:13;9.70;74.50
78788;DHT22;68131;52.508;5.502;2023-04-12T01:09:52;9.60;74.80
78788;DHT22;68131;52.508;5.502;2023-04-12T01:12:31;9.60;74.80
78788;DHT22;68131;52.508;5.502;2023-04-12T01:15:11;9.70;74.80
78788;DHT22;68131;52.508;5.502;2023-04-12T01:17:48;9.70;75.00
78788;DHT22;68131;52.508;5.502;2023-04-12T01:20:24;9.70;75.00
78788;DHT22;68131;52.508;5.502;2023-04-12T01:23:14;9.70;74.70
78788;DHT22;68131;52.508;5.502;2023-04-12T01:28:43;9.60;74.80
78788;DHT22;68131;52.508;5.502;2023-04-12T01:31:13;9.50;75.10
78788;DHT22;68131;52.508;5.502;2023-04-12T01:33:44;9.50;75.30
78788;DHT22;68131;52.508;5.502;2023-04-12T01:36:19;9.50;75.30
78788;DHT22;68131;52.508;5.502;2023-04-12T01:38:49;9.40;75.60
78788;DHT22;68131;52.508;5.502;2023-04-12T01:41:20;9.40;75.70
78788;DHT22;68131;52.508;5.502;2023-04-12T01:43:51;9.40;75.70
78788;DHT22;68131;52.508;5.502;2023-04-12T01:46:22;9.30;75.90
78788;DHT22;68131;52.508;5.502;2023-04-12T01:48:52;9.30;76.00
78788;DHT22;68131;52.508;5.502;2023-04-12T01:51:30;9.30;76.10
78788;DHT22;68131;52.508;5.502;2023-04-12T01:54:05;9.30;76.40
78788;DHT22;68131;52.508;5.502;2023-04-12T01:56:39;9.30;76.30
78788;DHT22;68131;52.508;5.502;2023-04-12T01:59:14;9.30;76.40
78788;DHT22;68131;52.508;5.502;2023-04-12T02:01:43;9.30;76.30
78788;DHT22;68131;52.508;5.502;2023-04-12T02:04:13;9.40;76.30
78788;DHT22;68131;52.508;5.502;2023-04-12T02:06:44;9.40;76.30
78788;DHT22;68131;52.508;5.502;2023-04-12T02:09:13;9.40;76.40
78788;DHT22;68131;52.508;5.502;2023-04-12T02:11:45;9.40;76.30
78788;DHT22;68131;52.508;5.502;2023-04-12T02:14:18;9.30;76.40
78788;DHT22;68131;52.508;5.502;2023-04-12T02:16:47;9.30;76.30
78788;DHT22;68131;52.508;5.502;2023-04-12T02:19:19;9.30;76.20
78788;DHT22;68131;52.508;5.502;2023-04-12T02:21:49;9.40;76.40
78788;DHT22;68131;52.508;5.502;2023-04-12T02:24:19;9.40;76.20
78788;DHT22;68131;52.508;5.502;2023-04-12T02:26:48;9.40;76.10
78788;DHT22;68131;52.508;5.502;2023-04-12T02:29:20;9.40;76.10
78788;DHT22;68131;52.508;5.502;2023-04-12T02:31:49;9.40;76.00
78788;DHT22;68131;52.508;5.502;2023-04-12T02:34:19;9.40;76.00
78788;DHT22;68131;52.508;5.502;2023-04-12T02:36:55;9.40;76.10
78788;DHT22;68131;52.508;5.502;2023-04-12T02:39:25;9.40;76.00
78788;DHT22;68131;52.508;5.502;2023-04-12T02:41:54;9.40;76.00
78788;DHT22;68131;52.508;5.502;2023-04-12T02:44:28;9.40;76.10
78788;DHT22;68131;52.508;5.502;2023-04-12T02:47:10;9.40;76.10
78788;DHT22;68131;52.508;5.502;2023-04-12T02:49:41;9.30;76.10
78788;DHT22;68131;52.508;5.502;2023-04-12T02:52:13;9.40;76.10
78788;DHT22;68131;52.508;5.502;2023-04-12T02:55:03;9.40;76.00
78788;DHT22;68131;52.508;5.502;2023-04-12T02:57:33;9.30;76.20
78788;DHT22;68131;52.508;5.502;2023-04-12T03:00:08;9.30;76.40
78788;DHT22;68131;52.508;5.502;2023-04-12T03:02:44;9.30;76.40
78788;DHT22;68131;52.508;5.502;2023-04-12T03:05:20;9.30;76.50
78788;DHT22;68131;52.508;5.502;2023-04-12T03:07:50;9.30;76.50
78788;DHT22;68131;52.508;5.502;2023-04-12T03:10:25;9.30;76.60
78788;DHT22;68131;52.508;5.502;2023-04-12T03:13:00;9.30;76.50
78788;DHT22;68131;52.508;5.502;2023-04-12T03:15:46;9.30;76.60
78788;DHT22;68131;52.508;5.502;2023-04-12T03:18:16;9.20;76.90
78788;DHT22;68131;52.508;5.502;2023-04-12T03:20:49;9.20;77.00
78788;DHT22;68131;52.508;5.502;2023-04-12T03:23:18;9.20;77.00
78788;DHT22;68131;52.508;5.502;2023-04-12T03:25:55;9.20;77.20
78788;DHT22;68131;52.508;5.502;2023-04-12T03:28:34;9.20;77.30
78788;DHT22;68131;52.508;5.502;2023-04-12T03:31:08;9.20;77.30
78788;DHT22;68131;52.508;5.502;2023-04-12T03:33:41;9.20;77.30
78788;DHT22;68131;52.508;5.502;2023-04-12T03:36:19;9.20;77.40
78788;DHT22;68131;52.508;5.502;2023-04-12T03:38:55;9.20;77.50
78788;DHT22;68131;52.508;5.502;2023-04-12T03:41:24;9.20;77.60
78788;DHT22;68131;52.508;5.502;2023-04-12T03:43:54;9.20;77.30
78788;DHT22;68131;52.508;5.502;2023-04-12T03:46:26;9.20;77.50
78788;DHT22;68131;52.508;5.502;2023-04-12T03:48:58;9.20;77.50
78788;DHT22;68131;52.508;5.502;2023-04-12T03:51:28;9.10;77.50
78788;DHT22;68131;52.508;5.502;2023-04-12T03:54:01;9.10;77.80
78788;DHT22;68131;52.508;5.502;2023-04-12T03:56:43;9.10;77.90
78788;DHT22;68131;52.508;5.502;2023-04-12T03:59:19;9.10;77.90
78788;DHT22;68131;52.508;5.502;2023-04-12T04:01:52;9.10;78.20
78788;DHT22;68131;52.508;5.502;2023-04-12T04:04:22;9.00;78.30
78788;DHT22;68131;52.508;5.502;2023-04-12T04:06:56;9.10;78.40
78788;DHT22;68131;52.508;5.502;2023-04-12T04:09:28;9.00;78.40
78788;DHT22;68131;52.508;5.502;2023-04-12T04:11:57;9.00;78.50
78788;DHT22;68131;52.508;5.502;2023-04-12T04:14:26;9.00;78.70
78788;DHT22;68131;52.508;5.502;2023-04-12T04:17:00;9.00;78.40
78788;DHT22;68131;52.508;5.502;2023-04-12T04:19:30;9.00;78.50
78788;DHT22;68131;52.508;5.502;2023-04-12T04:21:59;8.90;78.50
78788;DHT22;68131;52.508;5.502;2023-04-12T04:24:29;8.90;78.60
78788;DHT22;68131;52.508;5.502;2023-04-12T04:27:00;8.90;78.70
78788;DHT22;68131;52.508;5.502;2023-04-12T04:29:30;8.90;78.60
78788;DHT22;68131;52.508;5.502;2023-04-12T04:32:05;8.90;78.50
78788;DHT22;68131;52.508;5.502;2023-04-12T04:34:34;8.90;78.70
78788;DHT22;68131;52.508;5.502;2023-04-12T04:37:09;8.90;78.80
78788;DHT22;68131;52.508;5.502;2023-04-12T04:39:40;8.90;78.90
78788;DHT22;68131;52.508;5.502;2023-04-12T04:42:09;8.90;78.90
78788;DHT22;68131;52.508;5.502;2023-04-12T04:44:40;8.90;78.90
78788;DHT22;68131;52.508;5.502;2023-04-12T04:47:13;8.90;78.80
78788;DHT22;68131;52.508;5.502;2023-04-12T04:49:43;8.90;78.90
78788;DHT22;68131;52.508;5.502;2023-04-12T04:52:24;9.00;78.80
78788;DHT22;68131;52.508;5.502;2023-04-12T04:54:59;9.00;78.90
78788;DHT22;68131;52.508;5.502;2023-04-12T04:57:33;9.00;78.90
78788;DHT22;68131;52.508;5.502;2023-04-12T05:00:04;9.00;78.90
78788;DHT22;68131;52.508;5.502;2023-04-12T05:02:41;8.90;78.90
78788;DHT22;68131;52.508;5.502;2023-04-12T05:05:14;8.90;79.00
78788;DHT22;68131;52.508;5.502;2023-04-12T05:07:48;8.90;79.00
78788;DHT22;68131;52.508;5.502;2023-04-12T05:10:17;8.90;79.20
78788;DHT22;68131;52.508;5.502;2023-04-12T05:12:46;9.00;79.10
78788;DHT22;68131;52.508;5.502;2023-04-12T05:15:15;9.00;78.90
78788;DHT22;68131;52.508;5.502;2023-04-12T05:17:47;9.00;79.10
78788;DHT22;68131;52.508;5.502;2023-04-12T05:20:16;9.00;79.20
78788;DHT22;68131;52.508;5.502;2023-04-12T05:22:46;9.00;79.10
78788;DHT22;68131;52.508;5.502;2023-04-12T05:25:15;9.00;79.10
78788;DHT22;68131;52.508;5.502;2023-04-12T05:27:52;9.00;79.10
78788;DHT22;68131;52.508;5.502;2023-04-12T05:30:22;9.00;79.20
78788;DHT22;68131;52.508;5.502;2023-04-12T05:32:54;9.10;79.20
78788;DHT22;68131;52.508;5.502;2023-04-12T05:35:23;9.10;79.20
78788;DHT22;68131;52.508;5.502;2023-04-12T05:37:57;9.10;79.20
78788;DHT22;68131;52.508;5.502;2023-04-12T05:40:27;9.20;79.00
78788;DHT22;68131;52.508;5.502;2023-04-12T05:42:57;9.20;79.00
78788;DHT22;68131;52.508;5.502;2023-04-12T05:45:28;9.20;78.80
78788;DHT22;68131;52.508;5.502;2023-04-12T05:48:01;9.20;78.90
78788;DHT22;68131;52.508;5.502;2023-04-12T05:50:31;9.20;79.00
78788;DHT22;68131;52.508;5.502;2023-04-12T05:53:01;9.20;79.00
78788;DHT22;68131;52.508;5.502;2023-04-12T05:55:32;9.20;79.00
78788;DHT22;68131;52.508;5.502;2023-04-12T05:58:02;9.20;79.00
78788;DHT22;68131;52.508;5.502;2023-04-12T06:00:32;9.20;79.00
78788;DHT22;68131;52.508;5.502;2023-04-12T06:03:03;9.20;79.10
78788;DHT22;68131;52.508;5.502;2023-04-12T06:05:34;9.20;79.20
78788;DHT22;68131;52.508;5.502;2023-04-12T06:08:03;9.20;79.20
78788;DHT22;68131;52.508;5.502;2023-04-12T06:10:33;9.20;79.30
78788;DHT22;68131;52.508;5.502;2023-04-12T06:13:03;9.30;79.10
78788;DHT22;68131;52.508;5.502;2023-04-12T06:15:33;9.30;79.10
78788;DHT22;68131;52.508;5.502;2023-04-12T06:18:06;9.30;79.10
78788;DHT22;68131;52.508;5.502;2023-04-12T06:20:38;9.40;79.00
78788;DHT22;68131;52.508;5.502;2023-04-12T06:23:07;9.40;79.10
78788;DHT22;68131;52.508;5.502;2023-04-12T06:25:36;9.50;79.10
78788;DHT22;68131;52.508;5.502;2023-04-12T06:28:06;9.60;79.10
78788;DHT22;68131;52.508;5.502;2023-04-12T06:30:41;9.60;78.90
78788;DHT22;68131;52.508;5.502;2023-04-12T06:33:13;9.70;78.60
78788;DHT22;68131;52.508;5.502;2023-04-12T06:35:43;9.70;78.60
78788;DHT22;68131;52.508;5.502;2023-04-12T06:38:12;9.60;78.60
78788;DHT22;68131;52.508;5.502;2023-04-12T06:40:41;9.70;78.60
78788;DHT22;68131;52.508;5.502;2023-04-12T06:43:11;9.70;78.70
78788;DHT22;68131;52.508;5.502;2023-04-12T06:45:40;9.70;78.70
78788;DHT22;68131;52.508;5.502;2023-04-12T06:48:09;9.80;78.70
78788;DHT22;68131;52.508;5.502;2023-04-12T06:50:41;9.80;78.60
78788;DHT22;68131;52.508;5.502;2023-04-12T06:53:10;9.80;78.50
78788;DHT22;68131;52.508;5.502;2023-04-12T06:55:40;9.90;78.60
78788;DHT22;68131;52.508;5.502;2023-04-12T06:58:09;9.90;78.50
78788;DHT22;68131;52.508;5.502;2023-04-12T07:00:38;9.90;78.40
78788;DHT22;68131;52.508;5.502;2023-04-12T07:03:08;9.90;78.40
78788;DHT22;68131;52.508;5.502;2023-04-12T07:05:39;9.90;78.30
78788;DHT22;68131;52.508;5.502;2023-04-12T07:08:10;9.90;78.40
78788;DHT22;68131;52.508;5.502;2023-04-12T07:10:39;9.90;78.40
78788;DHT22;68131;52.508;5.502;2023-04-12T07:13:08;9.90;78.40
78788;DHT22;68131;52.508;5.502;2023-04-12T07:15:37;10.00;78.40
78788;DHT22;68131;52.508;5.502;2023-04-12T07:18:06;10.10;78.40
78788;DHT22;68131;52.508;5.502;2023-04-12T07:20:35;10.10;78.40
78788;DHT22;68131;52.508;5.502;2023-04-12T07:23:07;10.20;78.30
78788;DHT22;68131;52.508;5.502;2023-04-12T07:25:36;10.20;78.30
78788;DHT22;68131;52.508;5.502;2023-04-12T07:28:05;10.30;78.20
78788;DHT22;68131;52.508;5.502;2023-04-12T07:30:35;10.30;78.10
78788;DHT22;68131;52.508;5.502;2023-04-12T07:33:04;10.40;78.00
78788;DHT22;68131;52.508;5.502;2023-04-12T07:35:33;10.40;77.90
78788;DHT22;68131;52.508;5.502;2023-04-12T07:38:02;10.40;78.00
78788;DHT22;68131;52.508;5.502;2023-04-12T07:40:34;10.40;78.00
78788;DHT22;68131;52.508;5.502;2023-04-12T07:43:03;10.50;78.00
78788;DHT22;68131;52.508;5.502;2023-04-12T07:45:35;10.50;77.80
78788;DHT22;68131;52.508;5.502;2023-04-12T07:48:05;10.60;77.80
78788;DHT22;68131;52.508;5.502;2023-04-12T07:50:34;10.60;77.70
78788;DHT22;68131;52.508;5.502;2023-04-12T07:53:17;10.60;77.70
78788;DHT22;68131;52.508;5.502;2023-04-12T07:55:49;10.70;77.70
78788;DHT22;68131;52.508;5.502;2023-04-12T07:58:21;10.80;77.70
78788;DHT22;68131;52.508;5.502;2023-04-12T08:00:51;10.90;77.70
78788;DHT22;68131;52.508;5.502;2023-04-12T08:03:22;11.00;77.50
78788;DHT22;68131;52.508;5.502;2023-04-12T08:05:51;11.10;77.40
78788;DHT22;68131;52.508;5.502;2023-04-12T08:08:21;11.10;77.30
78788;DHT22;68131;52.508;5.502;2023-04-12T08:10:53;11.20;77.20
78788;DHT22;68131;52.508;5.502;2023-04-12T08:13:22;11.20;77.10
78788;DHT22;68131;52.508;5.502;2023-04-12T08:15:51;11.20;76.90
78788;DHT22;68131;52.508;5.502;2023-04-12T08:18:20;11.30;77.00
78788;DHT22;68131;52.508;5.502;2023-04-12T08:20:49;11.30;76.90
78788;DHT22;68131;52.508;5.502;2023-04-12T08:23:19;11.30;76.90
78788;DHT22;68131;52.508;5.502;2023-04-12T08:25:48;11.30;76.80
78788;DHT22;68131;52.508;5.502;2023-04-12T08:28:20;11.40;76.40
78788;DHT22;68131;52.508;5.502;2023-04-12T08:30:49;11.40;76.30
78788;DHT22;68131;52.508;5.502;2023-04-12T08:33:18;11.40;76.40
78788;DHT22;68131;52.508;5.502;2023-04-12T08:35:47;11.50;76.30
78788;DHT22;68131;52.508;5.502;2023-04-12T08:38:17;11.60;76.20
78788;DHT22;68131;52.508;5.502;2023-04-12T08:40:46;11.70;75.90
78788;DHT22;68131;52.508;5.502;2023-04-12T08:43:17;11.80;75.80
78788;DHT22;68131;52.508;5.502;2023-04-12T08:45:50;12.00;75.90
78788;DHT22;68131;52.508;5.502;2023-04-12T08:48:20;12.30;75.80
78788;DHT22;68131;52.508;5.502;2023-04-12T08:50:51;12.70;75.70
78788;DHT22;68131;52.508;5.502;2023-04-12T08:53:20;13.10;75.30
78788;DHT22;68131;52.508;5.502;2023-04-12T08:55:50;13.30;74.00
78788;DHT22;68131;52.508;5.502;2023-04-12T08:58:19;13.50;73.20
78788;DHT22;68131;52.508;5.502;2023-04-12T09:00:52;13.70;72.90
78788;DHT22;68131;52.508;5.502;2023-04-12T09:03:22;13.90;72.20
78788;DHT22;68131;52.508;5.502;2023-04-12T09:05:51;13.90;71.00
78788;DHT22;68131;52.508;5.502;2023-04-12T09:08:20;13.80;70.50
78788;DHT22;68131;52.508;5.502;2023-04-12T09:10:50;13.80;69.20
78788;DHT22;68131;52.508;5.502;2023-04-12T09:13:31;13.80;69.70
78788;DHT22;68131;52.508;5.502;2023-04-12T09:16:05;13.80;69.40
78788;DHT22;68131;52.508;5.502;2023-04-12T09:18:47;13.90;69.50
78788;DHT22;68131;52.508;5.502;2023-04-12T09:21:17;14.00;69.80
78788;DHT22;68131;52.508;5.502;2023-04-12T09:24:01;14.20;69.20
78788;DHT22;68131;52.508;5.502;2023-04-12T09:26:34;14.40;69.10
78788;DHT22;68131;52.508;5.502;2023-04-12T09:29:04;14.60;68.00
78788;DHT22;68131;52.508;5.502;2023-04-12T09:31:36;14.60;67.70
78788;DHT22;68131;52.508;5.502;2023-04-12T09:34:06;14.70;67.60
78788;DHT22;68131;52.508;5.502;2023-04-12T09:36:39;14.70;67.10
78788;DHT22;68131;52.508;5.502;2023-04-12T09:39:09;14.60;66.70
78788;DHT22;68131;52.508;5.502;2023-04-12T09:41:38;14.60;65.90
78788;DHT22;68131;52.508;5.502;2023-04-12T09:44:07;14.50;64.90
78788;DHT22;68131;52.508;5.502;2023-04-12T09:46:49;14.40;65.20
78788;DHT22;68131;52.508;5.502;2023-04-12T09:49:19;14.30;64.90
78788;DHT22;68131;52.508;5.502;2023-04-12T09:52:04;14.30;64.90
78788;DHT22;68131;52.508;5.502;2023-04-12T09:54:36;14.30;65.20
78788;DHT22;68131;52.508;5.502;2023-04-12T09:57:06;14.30;63.80
78788;DHT22;68131;52.508;5.502;2023-04-12T09:59:38;14.30;64.20
78788;DHT22;68131;52.508;5.502;2023-04-12T10:02:13;14.40;64.20
78788;DHT22;68131;52.508;5.502;2023-04-12T10:04:43;14.60;63.90
78788;DHT22;68131;52.508;5.502;2023-04-12T10:07:13;14.70;63.90
78788;DHT22;68131;52.508;5.502;2023-04-12T10:09:42;14.80;63.50
78788;DHT22;68131;52.508;5.502;2023-04-12T10:12:12;14.80;63.00
78788;DHT22;68131;52.508;5.502;2023-04-12T10:14:41;14.70;63.60
78788;DHT22;68131;52.508;5.502;2023-04-12T10:17:14;14.60;63.40
78788;DHT22;68131;52.508;5.502;2023-04-12T10:19:43;14.60;63.60
78788;DHT22;68131;52.508;5.502;2023-04-12T10:22:12;14.60;63.60
78788;DHT22;68131;52.508;5.502;2023-04-12T10:24:42;14.70;64.00
78788;DHT22;68131;52.508;5.502;2023-04-12T10:27:12;14.80;63.30
78788;DHT22;68131;52.508;5.502;2023-04-12T10:29:41;14.90;62.80
78788;DHT22;68131;52.508;5.502;2023-04-12T10:32:23;14.90;61.80
78788;DHT22;68131;52.508;5.502;2023-04-12T10:34:58;15.00;60.60
78788;DHT22;68131;52.508;5.502;2023-04-12T10:37:58;15.00;59.20
78788;DHT22;68131;52.508;5.502;2023-04-12T10:40:28;15.00;59.20
78788;DHT22;68131;52.508;5.502;2023-04-12T10:43:24;15.00;60.00
78788;DHT22;68131;52.508;5.502;2023-04-12T10:45:55;15.00;59.40
78788;DHT22;68131;52.508;5.502;2023-04-12T10:48:33;15.10;59.40
78788;DHT22;68131;52.508;5.502;2023-04-12T10:51:13;15.10;58.50
78788;DHT22;68131;52.508;5.502;2023-04-12T10:53:44;15.00;58.10
78788;DHT22;68131;52.508;5.502;2023-04-12T10:56:38;15.00;58.20
78788;DHT22;68131;52.508;5.502;2023-04-12T10:59:11;15.00;57.70
78788;DHT22;68131;52.508;5.502;2023-04-12T11:02:07;15.00;57.10
78788;DHT22;68131;52.508;5.502;2023-04-12T11:05:02;15.00;57.40
78788;DHT22;68131;52.508;5.502;2023-04-12T11:07:52;15.10;58.20
78788;DHT22;68131;52.508;5.502;2023-04-12T11:10:40;15.20;58.20
78788;DHT22;68131;52.508;5.502;2023-04-12T11:13:15;15.30;57.80
78788;DHT22;68131;52.508;5.502;2023-04-12T11:15:45;15.20;57.90
78788;DHT22;68131;52.508;5.502;2023-04-12T11:18:15;15.30;57.40
78788;DHT22;68131;52.508;5.502;2023-04-12T11:20:46;15.20;57.40
78788;DHT22;68131;52.508;5.502;2023-04-12T11:23:16;15.10;57.30
78788;DHT22;68131;52.508;5.502;2023-04-12T11:25:50;15.10;57.70
78788;DHT22;68131;52.508;5.502;2023-04-12T11:28:20;15.20;57.80
78788;DHT22;68131;52.508;5.502;2023-04-12T11:30:51;15.20;57.40
78788;DHT22;68131;52.508;5.502;2023-04-12T11:33:34;15.20;57.30
78788;DHT22;68131;52.508;5.502;2023-04-12T11:36:09;15.30;57.80
78788;DHT22;68131;52.508;5.502;2023-04-12T11:38:39;15.50;57.80
78788;DHT22;68131;52.508;5.502;2023-04-12T11:41:13;15.60;57.40
78788;DHT22;68131;52.508;5.502;2023-04-12T11:43:43;15.60;57.20
78788;DHT22;68131;52.508;5.502;2023-04-12T11:46:12;15.50;56.30
78788;DHT22;68131;52.508;5.502;2023-04-12T11:48:44;15.40;56.00
78788;DHT22;68131;52.508;5.502;2023-04-12T11:51:23;15.30;56.70
78788;DHT22;68131;52.508;5.502;2023-04-12T11:53:55;15.40;57.00
78788;DHT22;68131;52.508;5.502;2023-04-12T11:56:24;15.40;56.80
78788;DHT22;68131;52.508;5.502;2023-04-12T11:58:54;15.40;55.70
78788;DHT22;68131;52.508;5.502;2023-04-12T12:01:23;15.40;55.60
78788;DHT22;68131;52.508;5.502;2023-04-12T12:03:53;15.40;55.80
78788;DHT22;68131;52.508;5.502;2023-04-12T12:06:25;15.30;55.20
78788;DHT22;68131;52.508;5.502;2023-04-12T12:08:55;15.30;54.90
78788;DHT22;68131;52.508;5.502;2023-04-12T12:11:24;15.30;54.90
78788;DHT22;68131;52.508;5.502;2023-04-12T12:13:54;15.30;54.70
78788;DHT22;68131;52.508;5.502;2023-04-12T12:16:24;15.30;55.10
78788;DHT22;68131;52.508;5.502;2023-04-12T12:18:54;15.30;55.10
78788;DHT22;68131;52.508;5.502;2023-04-12T12:21:26;15.30;55.00
78788;DHT22;68131;52.508;5.502;2023-04-12T12:23:56;15.30;55.20
78788;DHT22;68131;52.508;5.502;2023-04-12T12:26:26;15.30;54.90
78788;DHT22;68131;52.508;5.502;2023-04-12T12:28:56;15.30;55.10
78788;DHT22;68131;52.508;5.502;2023-04-12T12:31:26;15.40;55.10
78788;DHT22;68131;52.508;5.502;2023-04-12T12:33:58;15.40;55.10
78788;DHT22;68131;52.508;5.502;2023-04-12T12:36:34;15.40;55.20
78788;DHT22;68131;52.508;5.502;2023-04-12T12:39:06;15.30;54.70
78788;DHT22;68131;52.508;5.502;2023-04-12T12:41:36;15.30;54.80
78788;DHT22;68131;52.508;5.502;2023-04-12T12:44:05;15.20;55.30
78788;DHT22;68131;52.508;5.502;2023-04-12T12:46:36;15.30;55.40
78788;DHT22;68131;52.508;5.502;2023-04-12T12:49:05;15.30;54.80
78788;DHT22;68131;52.508;5.502;2023-04-12T12:51:37;15.30;54.90
78788;DHT22;68131;52.508;5.502;2023-04-12T12:54:06;15.30;54.70
78788;DHT22;68131;52.508;5.502;2023-04-12T12:56:35;15.20;54.80
78788;DHT22;68131;52.508;5.502;2023-04-12T12:59:04;15.10;55.00
78788;DHT22;68131;52.508;5.502;2023-04-12T13:01:33;15.10;55.30
78788;DHT22;68131;52.508;5.502;2023-04-12T13:04:03;15.00;55.30
78788;DHT22;68131;52.508;5.502;2023-04-12T13:06:32;14.90;55.50
78788;DHT22;68131;52.508;5.502;2023-04-12T13:09:03;14.80;55.90
78788;DHT22;68131;52.508;5.502;2023-04-12T13:11:35;14.70;56.20
78788;DHT22;68131;52.508;5.502;2023-04-12T13:14:06;14.60;56.50
78788;DHT22;68131;52.508;5.502;2023-04-12T13:16:35;14.60;56.70
78788;DHT22;68131;52.508;5.502;2023-04-12T13:19:05;14.50;56.50
78788;DHT22;68131;52.508;5.502;2023-04-12T13:21:35;14.40;56.60
78788;DHT22;68131;52.508;5.502;2023-04-12T13:24:07;14.30;56.10
78788;DHT22;68131;52.508;5.502;2023-04-12T13:26:36;14.20;56.10
78788;DHT22;68131;52.508;5.502;2023-04-12T13:29:05;14.20;56.30
78788;DHT22;68131;52.508;5.502;2023-04-12T13:31:35;14.10;56.70
78788;DHT22;68131;52.508;5.502;2023-04-12T13:34:04;14.10;57.00
78788;DHT22;68131;52.508;5.502;2023-04-12T13:36:33;14.20;56.90
78788;DHT22;68131;52.508;5.502;2023-04-12T13:39:02;14.30;56.00
78788;DHT22;68131;52.508;5.502;2023-04-12T13:41:34;14.30;56.00
78788;DHT22;68131;52.508;5.502;2023-04-12T13:44:03;14.40;54.60
78788;DHT22;68131;52.508;5.502;2023-04-12T13:46:33;14.40;54.10
78788;DHT22;68131;52.508;5.502;2023-04-12T13:49:02;14.30;54.30
78788;DHT22;68131;52.508;5.502;2023-04-12T13:51:31;14.30;54.90
78788;DHT22;68131;52.508;5.502;2023-04-12T13:54:00;14.30;55.00
78788;DHT22;68131;52.508;5.502;2023-04-12T13:56:29;14.40;55.30
78788;DHT22;68131;52.508;5.502;2023-04-12T13:59:01;14.50;55.20
78788;DHT22;68131;52.508;5.502;2023-04-12T14:01:31;14.50;54.30
78788;DHT22;68131;52.508;5.502;2023-04-12T14:04:00;14.50;53.60
78788;DHT22;68131;52.508;5.502;2023-04-12T14:06:30;14.60;52.50
78788;DHT22;68131;52.508;5.502;2023-04-12T14:08:59;14.70;52.90
78788;DHT22;68131;52.508;5.502;2023-04-12T14:11:43;14.80;51.90
78788;DHT22;68131;52.508;5.502;2023-04-12T14:14:15;14.90;50.80
78788;DHT22;68131;52.508;5.502;2023-04-12T14:16:45;14.80;49.30
78788;DHT22;68131;52.508;5.502;2023-04-12T14:19:14;14.70;49.60
78788;DHT22;68131;52.508;5.502;2023-04-12T14:21:43;14.60;49.80
78788;DHT22;68131;52.508;5.502;2023-04-12T14:24:12;14.50;49.40
78788;DHT22;68131;52.508;5.502;2023-04-12T14:26:42;14.50;49.30
78788;DHT22;68131;52.508;5.502;2023-04-12T14:29:11;14.40;49.40
78788;DHT22;68131;52.508;5.502;2023-04-12T14:31:44;14.40;49.40
78788;DHT22;68131;52.508;5.502;2023-04-12T14:34:13;14.40;49.80
78788;DHT22;68131;52.508;5.502;2023-04-12T14:36:42;14.40;49.70
78788;DHT22;68131;52.508;5.502;2023-04-12T14:39:11;14.40;50.20
78788;DHT22;68131;52.508;5.502;2023-04-12T14:41:40;14.50;50.10
78788;DHT22;68131;52.508;5.502;2023-04-12T14:44:09;14.50;50.20
78788;DHT22;68131;52.508;5.502;2023-04-12T14:46:38;14.60;50.10
78788;DHT22;68131;52.508;5.502;2023-04-12T14:49:10;14.50;50.10
78788;DHT22;68131;52.508;5.502;2023-04-12T14:51:39;14.50;50.60
78788;DHT22;68131;52.508;5.502;2023-04-12T14:54:08;14.40;50.50
78788;DHT22;68131;52.508;5.502;2023-04-12T14:56:38;14.40;51.00
78788;DHT22;68131;52.508;5.502;2023-04-12T14:59:07;14.40;51.40
78788;DHT22;68131;52.508;5.502;2023-04-12T15:01:36;14.40;51.90
78788;DHT22;68131;52.508;5.502;2023-04-12T15:04:05;14.40;52.10
78788;DHT22;68131;52.508;5.502;2023-04-12T15:06:37;14.40;52.10
78788;DHT22;68131;52.508;5.502;2023-04-12T15:09:07;14.50;52.20
78788;DHT22;68131;52.508;5.502;2023-04-12T15:11:37;14.50;51.80
78788;DHT22;68131;52.508;5.502;2023-04-12T15:14:11;14.40;51.80
78788;DHT22;68131;52.508;5.502;2023-04-12T15:16:43;14.40;51.70
78788;DHT22;68131;52.508;5.502;2023-04-12T15:19:14;14.30;52.20
78788;DHT22;68131;52.508;5.502;2023-04-12T15:21:47;14.40;52.60
78788;DHT22;68131;52.508;5.502;2023-04-12T15:24:16;14.30;52.70
78788;DHT22;68131;52.508;5.502;2023-04-12T15:26:46;14.10;52.70
78788;DHT22;68131;52.508;5.502;2023-04-12T15:29:16;14.00;53.20
78788;DHT22;68131;52.508;5.502;2023-04-12T15:31:47;14.00;53.30
78788;DHT22;68131;52.508;5.502;2023-04-12T15:34:16;13.90;53.80
78788;DHT22;68131;52.508;5.502;2023-04-12T15:36:50;13.80;53.90
78788;DHT22;68131;52.508;5.502;2023-04-12T15:39:20;13.70;54.40
78788;DHT22;68131;52.508;5.502;2023-04-12T15:41:49;13.60;54.70
78788;DHT22;68131;52.508;5.502;2023-04-12T15:44:18;13.60;54.90
78788;DHT22;68131;52.508;5.502;2023-04-12T15:46:50;13.50;55.00
78788;DHT22;68131;52.508;5.502;2023-04-12T15:49:19;13.50;55.00
78788;DHT22;68131;52.508;5.502;2023-04-12T15:51:53;13.50;55.10
78788;DHT22;68131;52.508;5.502;2023-04-12T15:54:22;13.50;55.20
78788;DHT22;68131;52.508;5.502;2023-04-12T15:56:52;13.50;54.30
78788;DHT22;68131;52.508;5.502;2023-04-12T15:59:21;13.50;54.50
78788;DHT22;68131;52.508;5.502;2023-04-12T16:01:50;13.50;54.60
78788;DHT22;68131;52.508;5.502;2023-04-12T16:04:19;13.50;54.50
78788;DHT22;68131;52.508;5.502;2023-04-12T16:06:48;13.50;54.00
78788;DHT22;68131;52.508;5.502;2023-04-12T16:09:20;13.50;54.20